Time;durP1;ratioP1;P1;durP2;ratioP2;P2;SDS_P1;SDS_P2;PMS_P1;PMS_P2;Temp;Humidity;BMP_temperature;BMP_pressure;BME280_temperature;BME280_humidity;BME280_pressure;Samples;Min_cycle;Max_cycle;Signal;HPM_P1;HPM_P2
2021/11/17 02:27:19;;;;;;;62.83;22.73;;;;;;;6.32;90.54;101919.53;5055281;28;20036;-68
2021/11/17 02:30:26;;;;;;;60.15;22.27;;;;;;;6.22;91.16;101921.28;5055525;28;20045;-68
2021/11/17 02:33:05;;;;;;;63.88;22.13;;;;;;;6.21;91.09;101922.19;4997317;28;20049;-68
2021/11/17 02:35:40;;;;;;;59.80;21.50;;;;;;;6.30;90.36;101930.88;5021575;28;20051;-69
2021/11/17 02:38:26;;;;;;;59.10;21.13;;;;;;;6.36;90.25;101926.97;5055059;28;20102;-69
2021/11/17 02:41:21;;;;;;;64.57;22.40;;;;;;;6.38;90.61;101925.09;5036892;28;20463;-68
2021/11/17 02:43:47;;;;;;;58.10;20.77;;;;;;;6.33;91.01;101925.50;4950634;28;20424;-68
2021/11/17 02:46:15;;;;;;;63.30;21.65;;;;;;;6.44;90.09;101929.69;5036989;28;20036;-68
2021/11/17 02:49:16;;;;;;;63.58;22.15;;;;;;;6.47;89.88;101929.44;5036940;28;20051;-68
2021/11/17 02:51:53;;;;;;;62.35;20.80;;;;;;;6.32;90.40;101924.66;4989466;28;20047;-68
2021/11/17 02:54:56;;;;;;;56.15;21.33;;;;;;;6.39;90.09;101922.41;5037601;28;20028;-68
2021/11/17 02:57:50;;;;;;;62.72;21.40;;;;;;;6.39;90.17;101930.09;5021064;28;20446;-68
2021/11/17 03:00:22;;;;;;;64.50;21.83;;;;;;;6.27;90.42;101926.00;5021830;28;20192;-68
2021/11/17 03:03:24;;;;;;;60.28;22.38;;;;;;;6.33;90.46;101928.88;5036723;28;20021;-69
2021/11/17 03:06:05;;;;;;;55.50;20.20;;;;;;;6.36;90.17;101926.97;5054741;28;20111;-68
2021/11/17 03:08:39;;;;;;;55.50;20.23;;;;;;;6.42;90.04;101921.34;5020091;28;20056;-68
2021/11/17 03:11:11;;;;;;;53.20;19.77;;;;;;;6.35;89.84;101918.47;5054628;28;20048;-68
2021/11/17 03:13:56;;;;;;;56.97;20.10;;;;;;;6.39;89.89;101919.00;5036398;28;20434;-68
2021/11/17 03:16:37;;;;;;;59.67;20.25;;;;;;;6.35;90.00;101909.94;5019967;28;20554;-69
2021/11/17 03:19:12;;;;;;;54.05;19.52;;;;;;;6.39;90.16;101924.97;5019885;28;20483;-68
2021/11/17 03:22:12;;;;;;;53.28;20.40;;;;;;;6.50;90.48;101913.75;5020114;28;20522;-68
2021/11/17 03:24:50;;;;;;;55.17;19.83;;;;;;;6.42;89.58;101911.06;5054454;28;20028;-68
2021/11/17 03:27:15;;;;;;;52.85;19.38;;;;;;;6.36;89.93;101911.56;5020210;28;20025;-69
2021/11/17 03:29:50;;;;;;;57.97;20.13;;;;;;;6.33;89.89;101905.78;5036134;28;20036;-69
2021/11/17 03:32:24;;;;;;;51.00;18.77;;;;;;;6.47;90.20;101916.59;5054312;28;20304;-69
2021/11/17 03:35:08;;;;;;;52.67;18.30;;;;;;;6.44;89.74;101909.16;5053921;28;20086;-69
2021/11/17 03:37:51;;;;;;;52.58;18.88;;;;;;;6.44;90.15;101909.16;5036027;28;20021;-69
2021/11/17 03:40:23;;;;;;;51.60;18.27;;;;;;;6.43;89.38;101915.25;5035869;28;20028;-69
2021/11/17 03:42:59;;;;;;;48.30;18.00;;;;;;;6.38;90.38;101912.25;5054403;28;20464;-69
2021/11/17 03:45:54;;;;;;;50.45;18.55;;;;;;;6.41;90.02;101909.41;5019519;28;20028;-68
2021/11/17 03:48:45;;;;;;;52.35;18.27;;;;;;;6.54;90.05;101915.13;5054049;28;20114;-69
2021/11/17 03:51:21;;;;;;;52.55;18.02;;;;;;;6.48;89.54;101895.94;5021303;28;20100;-69
2021/11/17 03:54:25;;;;;;;44.72;17.40;;;;;;;6.45;89.36;101900.53;5036525;28;20029;-69
2021/11/17 03:57:11;;;;;;;52.15;18.05;;;;;;;6.54;89.23;101890.25;5036083;28;20025;-69
2021/11/17 03:59:39;;;;;;;44.92;16.80;;;;;;;6.62;89.59;101893.91;5053858;28;20040;-68
2021/11/17 04:02:30;;;;;;;46.75;17.10;;;;;;;6.45;89.93;101891.06;5053385;28;20052;-69
2021/11/17 04:05:01;;;;;;;45.33;17.25;;;;;;;6.37;90.20;101888.34;5053818;28;20060;-69
2021/11/17 04:07:48;;;;;;;47.97;17.88;;;;;;;6.41;89.88;101883.75;5035506;28;20033;-69
2021/11/17 04:10:36;;;;;;;53.20;18.33;;;;;;;6.37;89.94;101882.41;5053419;28;20522;-68
2021/11/17 04:13:27;;;;;;;50.72;18.10;;;;;;;6.38;90.00;101873.75;5037587;28;20045;-69
2021/11/17 04:16:07;;;;;;;52.80;17.88;;;;;;;6.25;90.31;101867.09;5007755;28;20041;-69
2021/11/17 04:18:57;;;;;;;54.92;18.08;;;;;;;6.24;90.77;101882.63;5020211;28;20033;-69
2021/11/17 04:21:25;;;;;;;49.55;17.33;;;;;;;6.24;90.48;101872.34;5053522;28;20028;-69
2021/11/17 04:24:00;;;;;;;54.60;16.75;;;;;;;6.22;90.54;101872.50;5053531;28;20458;-69
2021/11/17 04:26:32;;;;;;;50.53;17.23;;;;;;;6.27;90.47;101865.22;5035401;28;20029;-69
2021/11/17 04:29:10;;;;;;;47.37;17.73;;;;;;;6.19;90.86;101867.63;5035479;28;20021;-69
2021/11/17 04:32:06;;;;;;;51.13;17.35;;;;;;;6.23;90.72;101866.41;5018897;28;20032;-69
2021/11/17 04:34:51;;;;;;;50.47;17.33;;;;;;;6.25;90.21;101861.16;5053170;28;20474;-69
2021/11/17 04:37:29;;;;;;;58.83;18.33;;;;;;;6.29;90.36;101860.75;5037129;28;20028;-69
2021/11/17 04:40:17;;;;;;;57.10;17.48;;;;;;;6.44;90.08;101868.88;5035649;28;20472;-68
2021/11/17 04:43:04;;;;;;;51.92;17.88;;;;;;;6.43;90.02;101856.19;5053377;28;20028;-69
2021/11/17 04:45:50;;;;;;;52.83;16.90;;;;;;;6.44;89.88;101865.50;5035860;28;20032;-69
2021/11/17 04:48:37;;;;;;;47.83;17.63;;;;;;;6.36;90.52;101867.91;5052064;28;20123;-69
2021/11/17 04:51:12;;;;;;;53.25;18.25;;;;;;;6.36;90.64;101876.44;5035089;28;20119;-69
2021/11/17 04:53:56;;;;;;;48.13;17.05;;;;;;;6.44;89.34;101871.44;5018618;28;20028;-69
2021/11/17 04:56:43;;;;;;;55.63;17.58;;;;;;;6.44;90.03;101876.56;5053459;28;20021;-69
2021/11/17 04:59:40;;;;;;;53.63;17.85;;;;;;;6.41;89.92;101871.72;5019646;28;20368;-69
2021/11/17 05:02:30;;;;;;;53.80;18.75;;;;;;;6.50;89.88;101875.22;4934442;28;20056;-69
2021/11/17 05:05:18;;;;;;;50.80;16.98;;;;;;;6.56;89.41;101872.16;5040547;28;20047;-69
2021/11/17 05:07:53;;;;;;;54.97;17.23;;;;;;;6.56;89.41;101874.72;5055817;28;20535;-69
2021/11/17 05:10:33;;;;;;;52.05;17.75;;;;;;;6.43;89.70;101872.41;5056691;28;20031;-69
2021/11/17 05:13:17;;;;;;;47.45;17.48;;;;;;;6.48;90.22;101872.00;5019889;28;20056;-69
2021/11/17 05:16:21;;;;;;;54.65;17.90;;;;;;;6.46;90.30;101866.19;5035581;28;20029;-69
2021/11/17 05:19:01;;;;;;;51.60;17.25;;;;;;;6.42;89.70;101852.00;5031876;28;20510;-67
2021/11/17 05:21:51;;;;;;;52.85;17.30;;;;;;;6.53;90.58;101864.69;5036890;28;20349;-69
2021/11/17 05:24:35;;;;;;;54.20;18.10;;;;;;;6.42;90.84;101872.53;5035699;28;20037;-69
2021/11/17 05:27:13;;;;;;;;;;;;;;;6.50;90.46;101870.94;5037186;28;20416;-69
2021/11/17 05:30:17;;;;;;;47.40;17.13;;;;;;;6.54;89.74;101868.91;5035215;28;19916;-69
2021/11/17 05:33:06;;;;;;;46.95;16.70;;;;;;;6.63;90.00;101867.28;4986075;28;20045;-68
2021/11/17 05:35:35;;;;;;;54.47;18.05;;;;;;;6.63;89.49;101862.97;5035700;28;20032;-68
2021/11/17 05:38:11;;;;;;;47.97;17.20;;;;;;;6.59;89.48;101863.34;5036502;28;20075;-69
2021/11/17 05:40:51;;;;;;;51.72;17.05;;;;;;;6.67;89.52;101877.16;5036414;28;20030;-69
2021/11/17 05:43:25;;;;;;;53.63;17.05;;;;;;;6.55;89.90;101878.22;5036384;28;20075;-69
2021/11/17 05:46:29;;;;;;;59.15;18.58;;;;;;;6.49;90.34;101871.06;5036041;28;20029;-69
2021/11/17 05:49:00;;;;;;;62.00;18.40;;;;;;;6.40;90.41;101859.03;5034772;28;20071;-69
2021/11/17 05:51:58;;;;;;;50.78;17.08;;;;;;;6.56;90.12;101869.59;5036033;28;20096;-69
2021/11/17 05:54:48;;;;;;;47.25;17.10;;;;;;;6.50;89.88;101855.53;5036085;28;20071;-69
2021/11/17 05:57:42;;;;;;;52.90;18.27;;;;;;;6.53;90.21;101864.69;5035174;28;20379;-69
2021/11/17 06:00:19;;;;;;;;;;;;;;;6.61;90.07;101867.41;5036539;28;20479;-69
2021/11/17 06:03:14;;;;;;;55.80;17.20;;;;;;;6.64;90.72;101866.34;5036741;28;19909;-69
2021/11/17 06:05:39;;;;;;;54.55;17.98;;;;;;;6.62;90.08;101871.63;5034876;28;20022;-69
2021/11/17 06:08:05;;;;;;;58.17;18.70;;;;;;;6.65;90.15;101884.19;5035754;28;20032;-69
2021/11/17 06:10:34;;;;;;;59.77;19.17;;;;;;;6.66;90.59;101882.44;5036386;28;20619;-69
2021/11/17 06:13:01;;;;;;;52.78;18.58;;;;;;;6.76;90.03;101884.06;5039239;28;20291;-69
2021/11/17 06:15:27;;;;;;;56.28;18.20;;;;;;;6.86;90.48;101885.81;5037482;28;20052;-69
2021/11/17 06:17:56;;;;;;;52.85;19.35;;;;;;;6.80;90.00;101894.06;5055326;28;20549;-70
2021/11/17 06:20:23;;;;;;;58.78;19.92;;;;;;;6.84;90.07;101885.94;5037241;28;20047;-69
2021/11/17 06:22:55;;;;;;;59.72;19.75;;;;;;;6.68;90.39;101895.97;5055192;28;20021;-69
2021/11/17 06:25:21;;;;;;;58.80;18.55;;;;;;;6.77;90.83;101895.16;5055172;28;20020;-69
2021/11/17 06:27:52;;;;;;;64.72;20.30;;;;;;;6.86;90.38;101896.09;5055241;28;20100;-69
2021/11/17 06:30:20;;;;;;;55.03;18.90;;;;;;;6.87;90.93;101898.53;5055420;28;20456;-69
2021/11/17 06:32:47;;;;;;;57.75;20.17;;;;;;;6.79;91.25;101900.97;5055085;28;20027;-68
2021/11/17 06:35:14;;;;;;;61.08;19.88;;;;;;;6.81;90.84;101901.63;5037136;28;20032;-68
2021/11/17 06:37:39;;;;;;;66.35;22.20;;;;;;;6.83;91.00;101888.66;5037080;28;20033;-69
2021/11/17 06:40:12;;;;;;;69.50;21.48;;;;;;;6.76;90.98;101883.22;5054940;28;20031;-69
2021/11/17 06:42:42;;;;;;;57.65;20.42;;;;;;;6.88;90.81;101900.16;5055046;28;20059;-69
2021/11/17 06:45:11;;;;;;;54.55;19.75;;;;;;;6.84;91.50;101885.94;5054727;28;20021;-69
2021/11/17 06:47:37;;;;;;;61.58;21.13;;;;;;;6.96;90.86;101892.59;5036716;28;20028;-69
2021/11/17 06:50:04;;;;;;;60.63;20.38;;;;;;;6.95;91.14;101900.41;5036738;28;20443;-69
2021/11/17 06:52:29;;;;;;;60.38;20.02;;;;;;;6.85;91.33;101903.00;5054542;28;20150;-70
2021/11/17 06:54:55;;;;;;;68.13;21.63;;;;;;;6.81;92.00;101896.50;5054505;28;20078;-69
2021/11/17 06:57:20;;;;;;;60.83;21.30;;;;;;;6.93;91.48;101900.56;5036557;28;20043;-69
2021/11/17 06:59:46;;;;;;;64.68;21.92;;;;;;;7.00;91.01;101893.94;5054535;28;20024;-69
2021/11/17 07:02:12;;;;;;;64.80;21.67;;;;;;;7.03;91.08;101904.91;5054259;28;20104;-69
2021/11/17 07:04:38;;;;;;;61.33;21.38;;;;;;;7.01;92.11;101898.13;5054188;28;20049;-69
2021/11/17 07:07:05;;;;;;;73.28;22.65;;;;;;;6.95;91.82;101903.81;5036304;28;20513;-69
2021/11/17 07:09:31;;;;;;;71.43;22.60;;;;;;;7.04;91.82;101906.50;5054183;28;20490;-69
2021/11/17 07:11:56;;;;;;;68.25;22.92;;;;;;;7.15;91.55;101899.47;5054207;28;20025;-68
2021/11/17 07:14:22;;;;;;;73.15;23.58;;;;;;;7.10;91.58;101906.75;5053984;28;20045;-69
2021/11/17 07:16:49;;;;;;;71.07;23.27;;;;;;;7.10;92.36;101911.91;5036123;28;20017;-70
2021/11/17 07:19:16;;;;;;;75.32;23.02;;;;;;;7.07;92.08;101914.75;5035990;28;20033;-69
2021/11/17 07:21:43;;;;;;;75.97;23.98;;;;;;;7.15;92.64;101916.66;5053681;28;20029;-69
2021/11/17 07:24:10;;;;;;;71.47;23.98;;;;;;;7.12;92.72;101919.50;5053870;28;20037;-70
2021/11/17 07:26:35;;;;;;;70.35;23.67;;;;;;;7.18;92.57;101926.66;5035467;28;20024;-70
2021/11/17 07:29:01;;;;;;;85.40;24.65;;;;;;;7.11;92.63;101923.84;5053736;28;20041;-69
2021/11/17 07:31:27;;;;;;;88.30;25.95;;;;;;;7.31;92.45;101928.94;5053887;28;20025;-68
2021/11/17 07:33:52;;;;;;;77.38;24.10;;;;;;;7.27;92.78;101928.41;5053712;28;20432;-69
2021/11/17 07:39:39;;;;;;;78.05;24.55;;;;;;;7.35;92.45;101932.88;5053897;28;20083;-69
2021/11/17 07:42:05;;;;;;;84.22;25.42;;;;;;;7.47;92.29;101922.28;5053371;28;20052;-68
2021/11/17 07:44:31;;;;;;;77.90;23.27;;;;;;;7.42;92.18;101927.06;5053540;28;20382;-68
2021/11/17 07:46:57;;;;;;;76.93;24.30;;;;;;;7.38;92.60;101937.75;5053473;28;20403;-69
2021/11/17 07:49:25;;;;;;;71.82;23.98;;;;;;;7.44;92.54;101926.91;5054279;28;20456;-70
2021/11/17 07:51:51;;;;;;;82.43;26.92;;;;;;;7.38;93.45;101940.31;5053504;28;20024;-68
2021/11/17 07:54:18;;;;;;;83.65;25.02;;;;;;;7.49;92.74;101945.31;5053158;28;20470;-70
2021/11/17 07:56:44;;;;;;;80.78;25.15;;;;;;;7.52;93.08;101939.88;5053210;28;20384;-69
2021/11/17 07:59:13;;;;;;;82.60;26.05;;;;;;;7.58;92.65;101946.25;5053287;28;20017;-69
2021/11/17 08:01:39;;;;;;;79.05;26.10;;;;;;;7.47;92.64;101954.91;5053144;28;20459;-69
2021/11/17 08:04:05;;;;;;;83.85;25.85;;;;;;;7.52;93.30;101947.59;5053245;28;20054;-69
2021/11/17 08:06:31;;;;;;;83.03;25.88;;;;;;;7.54;93.85;101953.44;5035149;28;20028;-70
2021/11/17 08:08:57;;;;;;;81.72;25.90;;;;;;;7.53;93.77;101938.13;5053117;28;20356;-69
2021/11/17 08:11:24;;;;;;;71.30;24.52;;;;;;;7.78;93.32;101962.44;5035164;28;20427;-68
2021/11/17 08:13:50;;;;;;;77.65;24.83;;;;;;;7.78;93.19;101958.09;5034900;28;20128;-68
2021/11/17 08:16:16;;;;;;;75.10;24.80;;;;;;;7.76;92.84;101949.72;5052934;28;20032;-68
2021/11/17 08:18:42;;;;;;;86.18;24.92;;;;;;;7.74;93.01;101959.34;5035140;28;20057;-69
2021/11/17 08:21:10;;;;;;;77.10;25.50;;;;;;;7.82;93.69;101963.78;5035133;28;20057;-69
2021/11/17 08:23:35;;;;;;;82.30;25.95;;;;;;;7.84;92.68;101960.13;5034910;28;20115;-69
2021/11/17 08:26:02;;;;;;;80.68;25.38;;;;;;;7.98;93.01;101961.44;5053384;28;20075;-69
2021/11/17 08:28:28;;;;;;;76.35;25.27;;;;;;;7.93;93.42;101973.91;5052658;28;20059;-69
2021/11/17 08:30:53;;;;;;;84.72;27.25;;;;;;;7.95;94.15;101964.28;5052886;28;20024;-69
2021/11/17 08:33:18;;;;;;;79.80;26.35;;;;;;;7.99;93.27;101970.78;5052874;28;20058;-70
2021/11/17 08:35:44;;;;;;;71.22;25.23;;;;;;;8.03;93.52;101964.41;5034897;28;20087;-69
2021/11/17 08:38:16;;;;;;;76.82;25.90;;;;;;;8.03;93.34;101959.25;5053134;28;20024;-70
2021/11/17 08:40:51;;;;;;;77.00;25.40;;;;;;;8.10;93.36;101951.78;5056813;28;20025;-69
2021/11/17 08:43:18;;;;;;;72.72;25.17;;;;;;;8.07;93.54;101962.34;5056483;28;20049;-69
2021/11/17 08:45:48;;;;;;;79.47;25.88;;;;;;;8.14;93.18;101941.06;5056844;28;20048;-69
2021/11/17 08:48:15;;;;;;;73.63;25.55;;;;;;;8.25;92.83;101944.38;5057055;28;20024;-69
2021/11/17 08:50:41;;;;;;;73.75;25.35;;;;;;;8.30;92.71;101961.03;5039124;28;20430;-69
2021/11/17 08:53:09;;;;;;;70.93;26.10;;;;;;;8.42;92.74;101968.59;5057018;28;20416;-69
2021/11/17 08:55:35;;;;;;;69.80;25.60;;;;;;;8.54;92.20;101963.09;5038698;28;20170;-69
2021/11/17 08:58:02;;;;;;;66.15;24.20;;;;;;;8.77;91.54;101965.25;5057160;28;20032;-69
2021/11/17 09:00:29;;;;;;;72.57;25.23;;;;;;;8.92;91.30;101970.72;5057597;28;20059;-69
2021/11/17 09:02:56;;;;;;;66.63;24.45;;;;;;;8.95;91.86;101973.03;5056928;28;20040;-69
2021/11/17 09:05:26;;;;;;;67.35;24.75;;;;;;;8.75;92.13;101968.00;5056827;28;20028;-69
2021/11/17 09:07:52;;;;;;;67.45;24.83;;;;;;;8.79;92.59;101971.91;5039888;28;20048;-69
2021/11/17 09:10:22;;;;;;;66.03;23.83;;;;;;;8.82;92.09;101983.69;5056977;28;20025;-69
2021/11/17 09:12:48;;;;;;;64.25;24.65;;;;;;;8.74;91.98;101989.56;5056330;28;20036;-67
2021/11/17 09:15:16;;;;;;;64.22;24.45;;;;;;;8.69;93.16;101986.63;5056083;28;20083;-69
2021/11/17 09:17:42;;;;;;;61.80;24.17;;;;;;;8.56;93.56;101981.81;5055376;28;20028;-69
2021/11/17 09:20:08;;;;;;;65.18;24.48;;;;;;;8.78;93.41;101996.06;5055183;28;20037;-69
2021/11/17 09:22:34;;;;;;;65.80;24.90;;;;;;;8.98;92.97;101995.94;5037546;28;20025;-69
2021/11/17 09:25:00;;;;;;;59.53;23.65;;;;;;;9.14;91.87;102003.81;5055553;28;20051;-68
2021/11/17 09:27:27;;;;;;;61.78;23.27;;;;;;;9.10;92.24;101997.34;5055906;28;20104;-68
2021/11/17 09:29:52;;;;;;;61.00;23.13;;;;;;;9.32;91.59;102001.25;5055626;28;20028;-69
2021/11/17 09:32:17;;;;;;;55.90;22.83;;;;;;;9.39;91.16;101998.88;5054868;28;20021;-69
2021/11/17 09:34:43;;;;;;;61.78;23.30;;;;;;;9.65;90.46;102006.66;5055257;28;20071;-69
2021/11/17 09:37:09;;;;;;;59.95;24.20;;;;;;;9.82;89.86;102013.53;5055379;28;20017;-69
2021/11/17 09:39:37;;;;;;;55.47;22.90;;;;;;;9.89;89.93;102011.97;5037105;28;20132;-69
2021/11/17 09:42:04;;;;;;;56.15;21.90;;;;;;;10.00;89.98;102023.00;5036873;28;20075;-69
2021/11/17 09:44:36;;;;;;;58.92;22.88;;;;;;;9.91;90.22;102022.16;5055366;28;20074;-69
2021/11/17 09:47:05;;;;;;;56.10;22.63;;;;;;;9.81;90.71;102026.59;5054917;28;20545;-69
2021/11/17 09:50:07;;;;;;;54.00;22.90;;;;;;;9.89;90.54;102029.22;5036436;28;20028;-69
2021/11/17 09:52:38;;;;;;;52.90;22.02;;;;;;;10.02;89.77;102027.06;5050016;28;20484;-69
2021/11/17 09:55:20;;;;;;;49.60;21.55;;;;;;;10.00;90.18;102021.22;5054637;28;20099;-69
2021/11/17 09:57:51;;;;;;;54.92;21.90;;;;;;;10.11;90.07;102033.91;5054752;28;20029;-68
2021/11/17 10:00:25;;;;;;;51.03;22.13;;;;;;;10.22;89.69;102022.50;5055158;28;20064;-69
2021/11/17 10:02:57;;;;;;;48.80;20.73;;;;;;;10.13;89.87;102033.75;5055182;28;20029;-69
2021/11/17 10:09:24;;;;;;;48.25;20.88;;;;;;;10.23;90.13;102031.03;5051407;28;20109;-69
2021/11/17 10:15:34;;;;;;;46.22;19.77;;;;;;;10.30;90.28;102042.41;5070863;28;20390;-46
2021/11/17 10:18:18;;;;;;;48.53;21.30;;;;;;;10.38;89.97;102047.63;5071345;28;20032;-42
2021/11/17 10:20:50;;;;;;;48.03;19.13;;;;;;;10.90;88.67;102044.09;5071007;28;20033;-43
2021/11/17 10:23:52;;;;;;;48.07;19.80;;;;;;;11.40;85.62;102048.38;5069401;28;20035;-42
2021/11/17 10:26:18;;;;;;;47.78;20.10;;;;;;;11.43;86.41;102048.06;5069340;28;20490;-42
2021/11/17 10:28:53;;;;;;;37.20;18.40;;;;;;;11.46;86.36;102043.34;5069270;28;20021;-42
2021/11/17 10:31:24;;;;;;;39.97;17.75;;;;;;;11.44;85.79;102040.13;5070861;28;20016;-41
2021/11/17 10:34:18;;;;;;;36.40;17.40;;;;;;;11.56;85.93;102044.97;5070699;28;20152;-42
2021/11/17 10:36:44;;;;;;;38.45;16.52;;;;;;;11.37;86.12;102046.13;5070773;28;20472;-43
2021/11/17 10:39:30;;;;;;;35.88;15.80;;;;;;;11.34;86.77;102043.84;5070577;28;20031;-43
2021/11/17 10:42:01;;;;;;;36.10;15.75;;;;;;;12.07;84.61;102049.00;5070348;28;20037;-43
2021/11/17 10:44:41;;;;;;;35.55;14.77;;;;;;;14.75;75.66;102051.47;5070363;28;20107;-43
2021/11/17 10:47:31;;;;;;;27.80;13.45;;;;;;;16.44;67.52;102052.38;5070476;28;20063;-43
2021/11/17 10:49:56;;;;;;;28.48;13.52;;;;;;;14.08;75.45;102051.63;5070467;28;20036;-43
2021/11/17 10:52:42;;;;;;;28.30;12.47;;;;;;;15.65;68.92;102047.50;5070102;28;20475;-43
2021/11/17 10:55:39;;;;;;;29.27;12.35;;;;;;;13.98;75.17;102057.91;5052694;28;20894;-42
2021/11/17 10:58:11;;;;;;;27.48;11.32;;;;;;;13.04;78.71;102052.13;5069602;28;20409;-42
2021/11/17 11:00:44;;;;;;;24.77;11.25;;;;;;;12.59;81.23;102050.28;5070154;28;20021;-42
2021/11/17 11:03:13;;;;;;;20.95;10.55;;;;;;;13.48;77.89;102055.91;5069867;28;20036;-42
2021/11/17 11:05:44;;;;;;;23.10;9.73;;;;;;;12.82;80.43;102050.31;5069882;28;20031;-42
2021/11/17 11:08:25;;;;;;;28.20;12.43;;;;;;;12.65;80.02;102047.00;5068450;28;20104;-42
2021/11/17 11:10:54;;;;;;;25.30;12.10;;;;;;;12.44;82.44;102050.19;5068582;28;20108;-42
2021/11/17 11:13:40;;;;;;;23.55;10.70;;;;;;;12.15;83.92;102053.34;5068825;28;20135;-42
2021/11/17 11:16:17;;;;;;;33.22;13.50;;;;;;;11.96;84.34;102052.72;5069281;28;20065;-42
2021/11/17 11:18:56;;;;;;;31.33;13.70;;;;;;;11.86;84.47;102051.31;5069385;28;20090;-42
2021/11/17 11:21:46;;;;;;;29.27;13.50;;;;;;;12.07;84.48;102049.00;5069168;28;20013;-42
2021/11/17 11:24:28;;;;;;;24.50;10.55;;;;;;;12.03;82.86;102050.31;5068998;28;20078;-42
2021/11/17 11:26:59;;;;;;;20.40;8.18;;;;;;;12.55;80.04;102052.41;5056014;28;20471;-42
2021/11/17 11:29:36;;;;;;;19.73;8.25;;;;;;;16.66;67.44;102053.06;5055785;28;20052;-43
2021/11/17 11:32:05;;;;;;;20.55;7.43;;;;;;;20.05;54.26;102053.63;5056041;28;20387;-43
2021/11/17 11:34:42;;;;;;;16.98;6.80;;;;;;;15.48;68.06;102054.78;5056188;28;20460;-43
2021/11/17 11:37:23;;;;;;;17.48;6.07;;;;;;;14.60;70.10;102059.31;5056258;28;20068;-42
2021/11/17 11:40:12;;;;;;;16.70;4.38;;;;;;;15.70;65.02;102063.41;5056665;28;20107;-43
2021/11/17 11:42:56;;;;;;;13.52;4.07;;;;;;;13.98;72.58;102059.66;5056144;28;20061;-42
2021/11/17 11:45:27;;;;;;;13.57;4.00;;;;;;;13.21;74.72;102065.03;5056651;28;20071;-42
2021/11/17 11:48:01;;;;;;;17.63;3.67;;;;;;;13.26;74.71;102065.31;5056225;28;20467;-42
2021/11/17 11:50:32;;;;;;;14.43;3.83;;;;;;;13.56;73.35;102063.63;5055960;28;20031;-42
2021/11/17 11:53:12;;;;;;;21.70;3.42;;;;;;;13.57;74.70;102062.66;5055653;28;20033;-42
2021/11/17 11:55:49;;;;;;;15.75;3.00;;;;;;;13.72;71.92;102065.28;5055747;28;20047;-42
2021/11/17 11:58:24;;;;;;;17.20;3.50;;;;;;;14.09;70.92;102067.03;5055511;28;20028;-42
2021/11/17 12:01:17;;;;;;;14.32;3.00;;;;;;;19.08;54.68;102066.41;5056000;28;20035;-43
2021/11/17 12:04:00;;;;;;;13.25;2.80;;;;;;;21.88;46.15;102067.16;5053257;28;20033;-43
2021/11/17 12:06:50;;;;;;;14.77;3.13;;;;;;;17.73;55.17;102068.88;5055690;28;20036;-43
2021/11/17 12:09:28;;;;;;;14.52;3.28;;;;;;;17.50;56.38;102067.50;5054139;28;20151;-43
2021/11/17 12:11:57;;;;;;;15.10;3.10;;;;;;;17.50;54.37;102072.72;5055480;28;20028;-43
2021/11/17 12:14:38;;;;;;;19.92;3.50;;;;;;;17.99;52.02;102073.28;5055197;28;20550;-43
2021/11/17 12:17:05;;;;;;;20.10;3.40;;;;;;;17.87;52.22;102064.47;5055347;28;20128;-44
2021/11/17 12:19:51;;;;;;;18.60;3.33;;;;;;;14.74;62.60;102068.09;5055058;28;20029;-43
2021/11/17 12:22:40;;;;;;;18.63;3.35;;;;;;;18.91;50.13;102080.00;5055781;28;20116;-43
2021/11/17 12:25:19;;;;;;;14.10;3.30;;;;;;;21.72;44.61;102070.47;5054971;28;20025;-44
2021/11/17 12:27:46;;;;;;;15.88;3.60;;;;;;;22.53;42.41;102085.31;5055143;28;20531;-43
2021/11/17 12:30:27;;;;;;;20.40;3.70;;;;;;;22.48;41.17;102076.53;5055047;28;20074;-43
2021/11/17 12:32:57;;;;;;;16.50;3.50;;;;;;;21.94;41.64;102083.84;5055187;28;20116;-44
2021/11/17 12:35:30;;;;;;;18.15;3.58;;;;;;;22.37;40.47;102080.78;5054938;28;20357;-44
2021/11/17 12:38:06;;;;;;;22.77;3.67;;;;;;;21.25;42.47;102076.50;5054260;28;20083;-43
2021/11/17 12:40:52;;;;;;;24.67;3.95;;;;;;;20.52;45.46;102080.16;5055054;28;20447;-43
2021/11/17 12:43:38;;;;;;;18.23;3.88;;;;;;;17.86;52.06;102081.94;5055672;28;20025;-43
2021/11/17 12:46:22;;;;;;;19.30;3.75;;;;;;;15.17;57.97;102088.97;5055084;28;20021;-43
2021/11/17 12:49:08;;;;;;;18.10;3.63;;;;;;;14.64;59.48;102099.59;5055176;28;20024;-46
2021/11/17 12:51:43;;;;;;;17.42;3.50;;;;;;;14.95;60.48;102092.53;5055208;28;20029;-43
2021/11/17 12:54:33;;;;;;;16.48;3.60;;;;;;;14.57;60.67;102100.50;5054622;28;20118;-43
2021/11/17 12:57:10;;;;;;;18.27;3.42;;;;;;;14.91;59.35;102097.31;5050318;28;20041;-42
2021/11/17 12:59:58;;;;;;;21.95;3.33;;;;;;;14.21;60.97;102091.63;5054436;28;20025;-42
2021/11/17 13:02:23;;;;;;;21.15;3.42;;;;;;;13.39;62.77;102091.53;5054616;28;20489;-41
2021/11/17 13:05:16;;;;;;;17.47;3.50;;;;;;;12.74;65.19;102100.44;5054432;28;20063;-41
2021/11/17 13:07:44;;;;;;;16.38;3.17;;;;;;;12.46;67.30;102102.69;5054623;28;20753;-42
2021/11/17 13:10:42;;;;;;;18.58;3.20;;;;;;;12.28;68.53;102108.03;5054309;28;20029;-42
2021/11/17 13:13:21;;;;;;;19.38;3.10;;;;;;;12.08;70.33;102097.22;5053680;28;20040;-41
2021/11/17 13:16:07;;;;;;;21.35;3.30;;;;;;;11.93;70.26;102112.63;5054155;28;20020;-41
2021/11/17 13:18:36;;;;;;;19.45;3.35;;;;;;;11.74;68.95;102110.38;5054511;28;20033;-42
2021/11/17 13:21:12;;;;;;;17.17;2.80;;;;;;;12.08;68.26;102114.56;5054070;28;20063;-42
2021/11/17 13:24:00;;;;;;;19.33;3.00;;;;;;;12.19;67.13;102116.81;5053809;28;20403;-42
2021/11/17 13:26:51;;;;;;;17.90;3.15;;;;;;;12.18;67.56;102117.81;5053478;28;20041;-41
2021/11/17 13:29:28;;;;;;;17.27;2.90;;;;;;;12.33;67.74;102120.53;5053976;28;20463;-41
2021/11/17 13:32:02;;;;;;;14.95;2.95;;;;;;;12.24;67.42;102121.53;5053999;28;20376;-41
2021/11/17 13:34:38;;;;;;;18.27;3.03;;;;;;;12.30;67.90;102118.25;5053529;28;20468;-42
2021/11/17 13:37:37;;;;;;;14.85;2.83;;;;;;;12.22;67.50;102115.69;5053848;28;20542;-41
2021/11/17 13:40:10;;;;;;;24.08;3.10;;;;;;;12.11;66.71;102101.28;5052291;28;20029;-42
2021/11/17 13:42:37;;;;;;;18.02;2.90;;;;;;;12.05;67.28;102107.94;5053604;28;20103;-42
2021/11/17 13:45:10;;;;;;;17.17;2.90;;;;;;;12.12;67.62;102116.69;5053624;28;20029;-42
2021/11/17 13:47:35;;;;;;;12.73;2.70;;;;;;;11.98;66.47;102112.16;5052973;28;20029;-42
2021/11/17 13:50:04;;;;;;;18.13;2.63;;;;;;;11.96;67.00;102122.66;5053148;28;20033;-42
2021/11/17 13:52:33;;;;;;;17.27;2.53;;;;;;;11.99;67.09;102118.94;5053261;28;20087;-42
2021/11/17 13:55:00;;;;;;;17.52;2.55;;;;;;;11.98;67.08;102122.53;5053359;28;20100;-42
2021/11/17 13:57:27;;;;;;;18.75;2.58;;;;;;;11.82;65.29;102123.28;5053655;28;20384;-42
2021/11/17 13:59:52;;;;;;;19.75;2.70;;;;;;;11.79;66.90;102122.81;5053312;28;20035;-42
2021/11/17 14:02:18;;;;;;;13.35;2.25;;;;;;;11.83;67.17;102135.28;5053241;28;20029;-42
2021/11/17 14:04:43;;;;;;;18.13;2.50;;;;;;;11.69;66.35;102146.28;5053317;28;20017;-42
2021/11/17 14:07:14;;;;;;;10.82;2.20;;;;;;;11.50;67.37;102150.78;5053139;28;20063;-42
2021/11/17 14:09:39;;;;;;;11.38;2.20;;;;;;;11.56;67.26;102151.91;5053136;28;20025;-42
2021/11/17 14:12:06;;;;;;;15.52;2.58;;;;;;;11.46;66.96;102146.09;5053184;28;20356;-42
2021/11/17 14:14:32;;;;;;;13.27;2.58;;;;;;;11.40;67.39;102149.31;5053079;28;20041;-42
2021/11/17 14:16:57;;;;;;;14.50;2.17;;;;;;;11.36;69.35;102168.72;5053502;28;20044;-42
2021/11/17 14:19:22;;;;;;;13.20;2.63;;;;;;;11.37;67.68;102171.16;5053072;28;20371;-42
2021/11/17 14:21:48;;;;;;;17.58;2.83;;;;;;;11.34;67.45;102170.66;5052987;28;20024;-42
2021/11/17 14:24:14;;;;;;;21.00;2.78;;;;;;;11.38;67.66;102167.59;5053000;28;20060;-41
2021/11/17 14:26:42;;;;;;;12.48;2.70;;;;;;;11.21;69.29;102158.97;5053300;28;20025;-42
2021/11/17 14:29:14;;;;;;;21.45;2.92;;;;;;;11.25;70.21;102168.06;5053170;28;20029;-42
2021/11/17 14:31:47;;;;;;;13.88;2.30;;;;;;;11.11;68.05;102171.25;5053815;28;20040;-42